Terminal Aerodrome Forecast
Issued by NWS

Current Version | Previous Version | Text Only | Print | Product List | Glossary On
Versions: 1 2 3 4 5 6 7 8 9 10 11 12 13 14 15
000
FTUS44 KLIX 271120
TAFMSY
TAF
KMSY 271120Z 2712/2812 26004KT P6SM BKN017 BKN110 BKN220
      TEMPO 2712/2714 3SM SHRA BKN015 OVC030
     FM271500 21012KT 6SM SHRA BKN030
     FM271800 23010KT 6SM TSRA BKN040CB
     FM272100 23006KT 6SM SHRA BKN090
     FM280000 22008KT P6SM BKN110
     FM280200 21007KT P6SM SCT120=

USA.gov is the U.S. government's official web portal to all federal, state and local government web resources and services.